Terminal Aerodrome Forecast
Issued by NWS

Home | Current Version | Previous Version | Text Only | Print | Product List | Glossary On
Versions: 1 2 3 4 5 6 7 8 9 10 11 12 13 14 15 16 17 18 19 20 21
000
FTUS43 KILX 260227 CCA
TAFCMI
TAF COR
KCMI 260227Z 2602/2624 04014G24KT P6SM BKN010 OVC035
      TEMPO 2602/2604 4SM BR SCT010 OVC035
     FM260900 03012KT P6SM SCT015
     FM261500 03012G18KT P6SM SKC=

USA.gov is the U.S. government's official web portal to all federal, state and local government web resources and services.